Time;durP1;ratioP1;P1;durP2;ratioP2;P2;SDS_P1;SDS_P2;PMS_P1;PMS_P2;Temp;Humidity;BMP_temperature;BMP_pressure;BME280_temperature;BME280_humidity;BME280_pressure;Samples;Min_cycle;Max_cycle;Signal;HPM_P1;HPM_P2
2023/07/12 00:01:18;;;;;;;3.13;1.80;;;22.80;97.40;;;;;;5089813;27;20414;-73
2023/07/12 00:03:45;;;;;;;3.45;1.95;;;22.70;97.50;;;;;;5111457;27;20485;-73
2023/07/12 00:06:36;;;;;;;3.17;1.80;;;22.70;97.60;;;;;;5091208;27;20474;-73
2023/07/12 00:09:05;;;;;;;6.18;1.80;;;22.70;97.60;;;;;;5106075;27;20418;-73
2023/07/12 00:11:32;;;;;;;5.60;2.10;;;22.70;97.60;;;;;;5093667;27;20491;-73
2023/07/12 00:13:58;;;;;;;4.18;2.10;;;22.80;97.70;;;;;;5094156;27;20999;-73
2023/07/12 00:16:33;;;;;;;3.20;1.90;;;22.70;97.70;;;;;;5113943;27;20416;-73
2023/07/12 00:19:00;;;;;;;3.20;1.88;;;22.70;97.80;;;;;;5115241;27;20410;-73
2023/07/12 00:21:29;;;;;;;7.65;1.90;;;22.70;97.90;;;;;;5111222;27;20403;-73
2023/07/12 00:23:59;;;;;;;3.90;2.00;;;22.60;98.00;;;;;;5097957;27;20429;-73
2023/07/12 00:26:35;;;;;;;2.85;1.70;;;22.60;98.00;;;;;;5115390;27;20413;-73
2023/07/12 00:29:05;;;;;;;2.60;1.90;;;22.60;98.00;;;;;;5113057;28;20414;-72
2023/07/12 00:31:33;;;;;;;4.80;2.13;;;22.60;98.00;;;;;;5118538;28;20495;-72
2023/07/12 00:34:00;;;;;;;4.45;1.90;;;22.60;98.10;;;;;;5108214;28;20414;-73
2023/07/12 00:36:30;;;;;;;4.20;1.90;;;22.50;98.00;;;;;;5111718;28;21112;-73
2023/07/12 00:38:59;;;;;;;3.27;1.80;;;22.50;98.10;;;;;;5097462;28;20406;-73
2023/07/12 00:42:22;;;;;;;3.42;1.83;;;22.50;98.10;;;;;;5095725;28;20419;-73
2023/07/12 00:44:57;;;;;;;3.08;1.90;;;22.40;98.10;;;;;;5010273;28;20426;-73
2023/07/12 00:47:24;;;;;;;2.70;1.90;;;22.40;98.10;;;;;;5065078;28;20438;-72
2023/07/12 00:49:51;;;;;;;3.55;1.83;;;22.40;98.10;;;;;;5115793;28;20409;-73
2023/07/12 00:52:20;;;;;;;4.70;1.90;;;22.30;98.10;;;;;;5094280;28;20538;-73
2023/07/12 00:55:03;;;;;;;3.50;1.73;;;22.40;98.10;;;;;;5114181;28;20405;-73
2023/07/12 00:57:32;;;;;;;3.20;1.87;;;22.30;98.10;;;;;;5116039;28;20406;-73
2023/07/12 01:00:10;;;;;;;2.88;1.90;;;22.40;98.20;;;;;;5093165;28;20398;-72
2023/07/12 01:02:45;;;;;;;4.00;1.90;;;22.30;98.50;;;;;;5100565;28;20399;-73
2023/07/12 01:05:15;;;;;;;5.10;2.08;;;22.30;98.20;;;;;;5064947;28;20415;-72
2023/07/12 01:07:41;;;;;;;4.88;1.90;;;22.30;98.20;;;;;;5114542;27;20421;-73
2023/07/12 01:10:08;;;;;;;4.15;1.90;;;22.30;98.30;;;;;;5084398;27;20979;-73
2023/07/12 01:12:34;;;;;;;2.08;1.60;;;22.30;98.20;;;;;;5115308;27;20451;-73
2023/07/12 01:15:01;;;;;;;4.95;2.03;;;22.20;98.10;;;;;;5085784;27;20428;-73
2023/07/12 01:17:29;;;;;;;4.00;1.90;;;22.10;98.20;;;;;;5097216;27;21000;-73
2023/07/12 01:19:55;;;;;;;3.33;2.00;;;22.10;98.30;;;;;;5119393;27;20417;-74
2023/07/12 01:22:21;;;;;;;4.70;2.03;;;22.10;98.40;;;;;;5116805;27;20478;-74
2023/07/12 01:24:48;;;;;;;3.00;2.00;;;22.10;98.60;;;;;;5097339;27;20412;-74
2023/07/12 01:27:24;;;;;;;2.20;1.70;;;22.10;98.60;;;;;;5116635;27;20487;-74
2023/07/12 01:29:52;;;;;;;5.27;1.90;;;22.10;98.70;;;;;;5117081;27;20399;-74
2023/07/12 01:32:18;;;;;;;3.22;1.90;;;22.10;98.80;;;;;;5115585;27;20448;-74
2023/07/12 01:34:46;;;;;;;4.05;1.90;;;22.10;98.80;;;;;;5120302;27;20429;-74
2023/07/12 01:37:13;;;;;;;5.38;2.08;;;22.10;98.80;;;;;;5111904;27;20416;-74
2023/07/12 01:39:39;;;;;;;2.70;2.00;;;22.10;99.00;;;;;;5116995;27;20778;-74
2023/07/12 01:42:05;;;;;;;3.47;1.90;;;22.10;99.10;;;;;;5081605;27;20446;-74
2023/07/12 01:44:31;;;;;;;4.43;1.90;;;22.00;99.00;;;;;;5118324;27;20794;-74
2023/07/12 01:46:57;;;;;;;2.80;1.75;;;21.90;99.10;;;;;;5098294;27;20420;-74
2023/07/12 01:49:24;;;;;;;4.45;1.88;;;21.80;99.30;;;;;;5117639;27;20421;-74
2023/07/12 01:51:50;;;;;;;3.67;2.03;;;21.70;99.40;;;;;;5068265;27;20458;-74
2023/07/12 01:54:16;;;;;;;3.10;1.80;;;21.70;99.40;;;;;;5116962;27;20690;-74
2023/07/12 01:56:43;;;;;;;3.10;1.90;;;21.60;99.70;;;;;;5111206;27;20416;-74
2023/07/12 01:59:09;;;;;;;4.68;1.70;;;21.60;99.60;;;;;;5118507;27;20441;-74
2023/07/12 02:01:35;;;;;;;2.63;1.77;;;21.50;99.60;;;;;;5094333;27;20420;-74
2023/07/12 02:04:02;;;;;;;2.17;1.73;;;21.50;99.60;;;;;;5115581;27;20409;-74
2023/07/12 02:06:28;;;;;;;3.20;1.80;;;21.40;99.70;;;;;;5096214;27;20767;-74
2023/07/12 02:08:54;;;;;;;3.47;1.98;;;21.40;99.90;;;;;;5098369;27;20497;-74
2023/07/12 02:11:20;;;;;;;6.28;1.90;;;21.40;99.90;;;;;;5100038;27;20427;-74
2023/07/12 02:13:47;;;;;;;3.70;2.00;;;21.40;99.80;;;;;;5100240;27;20410;-74
2023/07/12 02:16:13;;;;;;;4.57;1.70;;;21.40;99.60;;;;;;5076744;27;20429;-74
2023/07/12 02:18:39;;;;;;;2.40;1.80;;;21.30;99.60;;;;;;5114530;27;20404;-74
2023/07/12 02:21:06;;;;;;;3.67;1.80;;;21.30;99.60;;;;;;5062635;27;20911;-74
2023/07/12 02:23:32;;;;;;;4.97;1.90;;;21.30;99.50;;;;;;5077435;27;20404;-74
2023/07/12 02:25:58;;;;;;;4.65;1.90;;;21.30;99.50;;;;;;5098294;27;20414;-74
2023/07/12 02:28:24;;;;;;;3.55;2.08;;;21.20;99.40;;;;;;5081593;27;20943;-74
2023/07/12 02:30:51;;;;;;;2.85;1.90;;;21.10;99.30;;;;;;5109523;27;20403;-74
2023/07/12 02:33:17;;;;;;;2.65;1.73;;;21.10;99.40;;;;;;5109590;27;20896;-74
2023/07/12 02:35:43;;;;;;;5.60;2.00;;;21.10;99.40;;;;;;5111047;27;20920;-74
2023/07/12 02:38:10;;;;;;;5.93;1.90;;;21.20;99.30;;;;;;5113250;27;20409;-74
2023/07/12 02:40:36;;;;;;;5.75;2.08;;;21.20;99.20;;;;;;5114078;27;20408;-73
2023/07/12 02:43:02;;;;;;;5.45;2.00;;;21.20;99.20;;;;;;5060347;27;20467;-74
2023/07/12 02:45:29;;;;;;;4.60;1.90;;;21.30;99.30;;;;;;5082132;27;20408;-74
2023/07/12 02:47:55;;;;;;;3.88;1.77;;;21.30;99.20;;;;;;5094987;27;21018;-74
2023/07/12 02:50:22;;;;;;;4.80;1.98;;;21.30;99.30;;;;;;5099724;27;20474;-74
2023/07/12 02:52:48;;;;;;;2.80;1.70;;;21.20;99.20;;;;;;5116427;27;20411;-74
2023/07/12 02:55:15;;;;;;;3.95;2.00;;;21.20;99.40;;;;;;5118310;27;20437;-74
2023/07/12 02:57:41;;;;;;;5.00;2.00;;;21.30;99.10;;;;;;5096338;27;20415;-74
2023/07/12 03:00:08;;;;;;;5.22;1.95;;;21.20;99.10;;;;;;5117935;27;20412;-74
2023/07/12 03:02:35;;;;;;;7.88;2.10;;;21.10;99.20;;;;;;5097735;27;20828;-74
2023/07/12 03:05:01;;;;;;;5.78;2.10;;;21.00;99.30;;;;;;5114544;27;20406;-73
2023/07/12 03:07:27;;;;;;;5.90;1.92;;;21.00;99.60;;;;;;5117984;27;20410;-74
2023/07/12 03:09:56;;;;;;;5.70;2.03;;;21.00;99.60;;;;;;5114228;27;20505;-74
2023/07/12 03:12:23;;;;;;;3.92;1.88;;;21.00;99.70;;;;;;5095545;27;20422;-74
2023/07/12 03:14:50;;;;;;;3.33;1.73;;;21.10;99.90;;;;;;5095990;27;20406;-74
2023/07/12 03:17:16;;;;;;;4.57;1.90;;;21.00;99.90;;;;;;5116051;27;20799;-74
2023/07/12 03:19:43;;;;;;;3.55;2.00;;;21.00;99.90;;;;;;5098859;27;20501;-74
2023/07/12 03:22:09;;;;;;;4.28;1.98;;;21.00;99.90;;;;;;5118878;27;20421;-74
2023/07/12 03:24:35;;;;;;;7.60;2.47;;;21.00;99.90;;;;;;5108819;27;20408;-74
2023/07/12 03:27:02;;;;;;;5.40;2.00;;;21.00;99.90;;;;;;5080266;27;22266;-74
2023/07/12 03:29:28;;;;;;;5.03;1.90;;;21.00;99.90;;;;;;5099472;27;20551;-73
2023/07/12 03:31:54;;;;;;;3.80;1.95;;;21.10;99.90;;;;;;5096733;27;20408;-73
2023/07/12 03:34:20;;;;;;;3.70;2.22;;;21.10;99.90;;;;;;5115370;27;20486;-74
2023/07/12 03:36:47;;;;;;;4.47;1.98;;;21.20;99.90;;;;;;5116666;27;20464;-74
2023/07/12 03:39:14;;;;;;;3.37;1.80;;;21.20;99.90;;;;;;5102386;27;20399;-74
2023/07/12 03:41:40;;;;;;;4.90;2.00;;;21.20;99.90;;;;;;5113430;27;20511;-74
2023/07/12 03:44:06;;;;;;;4.40;2.00;;;21.20;99.90;;;;;;5116537;27;20426;-74
2023/07/12 03:46:32;;;;;;;6.78;1.90;;;21.30;99.90;;;;;;5096529;27;20940;-73
2023/07/12 03:48:59;;;;;;;4.18;2.00;;;21.40;99.90;;;;;;5095081;27;20870;-74
2023/07/12 03:51:25;;;;;;;4.03;2.00;;;21.40;99.90;;;;;;5108484;27;20503;-73
2023/07/12 03:53:53;;;;;;;4.55;1.95;;;21.40;99.90;;;;;;5114396;27;20406;-74
2023/07/12 03:56:19;;;;;;;4.30;2.00;;;21.40;99.90;;;;;;5095223;27;20414;-74
2023/07/12 03:58:45;;;;;;;4.70;2.00;;;21.30;99.90;;;;;;5096278;27;20407;-74
2023/07/12 04:01:13;;;;;;;3.10;2.00;;;21.40;99.90;;;;;;5079506;27;20476;-73
2023/07/12 04:03:39;;;;;;;3.47;1.70;;;21.40;99.90;;;;;;5094882;27;20409;-73
2023/07/12 04:06:07;;;;;;;4.90;2.00;;;21.40;99.90;;;;;;5093037;27;20618;-73
2023/07/12 04:08:34;;;;;;;4.45;2.08;;;21.40;99.90;;;;;;5110306;27;20894;-73
2023/07/12 04:11:01;;;;;;;6.05;2.05;;;21.40;99.90;;;;;;5097633;27;20769;-73
2023/07/12 04:13:28;;;;;;;4.18;1.95;;;21.40;99.90;;;;;;5116913;27;20582;-73
2023/07/12 04:16:00;;;;;;;3.42;1.88;;;21.40;99.90;;;;;;5096837;27;20495;-74
2023/07/12 04:18:27;;;;;;;3.75;1.80;;;21.50;99.90;;;;;;5116105;27;20417;-74
2023/07/12 04:20:58;;;;;;;3.58;2.00;;;21.60;99.90;;;;;;5098173;28;20781;-74
2023/07/12 04:23:25;;;;;;;4.65;1.92;;;21.60;99.90;;;;;;5113653;27;20418;-73
2023/07/12 04:26:03;;;;;;;5.85;2.20;;;21.60;99.90;;;;;;5093521;28;20453;-74
2023/07/12 04:28:32;;;;;;;4.28;2.00;;;21.70;99.90;;;;;;5114708;27;20503;-74
2023/07/12 04:31:10;;;;;;;2.63;1.83;;;21.80;99.90;;;;;;5113913;28;20422;-73
2023/07/12 04:33:37;;;;;;;2.95;1.83;;;21.90;99.90;;;;;;5093149;28;20862;-73
2023/07/12 04:36:10;;;;;;;2.38;1.92;;;21.90;99.90;;;;;;5092502;28;20425;-74
2023/07/12 04:38:37;;;;;;;3.42;2.00;;;22.00;99.90;;;;;;5113504;28;20912;-74
2023/07/12 04:41:04;;;;;;;4.20;1.93;;;22.00;99.90;;;;;;5117209;28;20450;-73
2023/07/12 04:43:31;;;;;;;2.10;1.73;;;22.10;99.90;;;;;;5106551;27;20892;-74
2023/07/12 04:45:58;;;;;;;3.15;1.85;;;22.20;99.90;;;;;;5095030;27;20790;-73
2023/07/12 04:48:25;;;;;;;3.45;1.75;;;22.30;99.90;;;;;;5118283;27;20410;-74
2023/07/12 04:50:54;;;;;;;2.90;1.90;;;22.40;99.90;;;;;;5121235;27;20409;-73
2023/07/12 04:53:22;;;;;;;5.75;1.90;;;22.40;99.90;;;;;;5103738;27;22071;-74
2023/07/12 04:55:52;;;;;;;4.40;2.17;;;22.50;99.90;;;;;;5099384;27;20464;-73
2023/07/12 04:58:19;;;;;;;6.18;1.98;;;22.60;99.90;;;;;;5114838;27;20414;-73
2023/07/12 05:00:45;;;;;;;2.78;1.83;;;22.70;99.90;;;;;;5105375;27;20434;-74
2023/07/12 05:03:15;;;;;;;4.38;2.00;;;22.70;99.90;;;;;;5118243;27;20432;-73
2023/07/12 05:05:42;;;;;;;5.13;2.05;;;22.80;99.90;;;;;;5102310;27;20458;-74
2023/07/12 05:08:08;;;;;;;3.45;2.00;;;22.90;99.90;;;;;;5098715;27;20444;-74
2023/07/12 05:10:36;;;;;;;4.43;1.92;;;22.90;99.90;;;;;;5114866;27;20931;-73
2023/07/12 05:13:02;;;;;;;4.80;1.73;;;23.00;99.90;;;;;;5115766;27;20418;-73
2023/07/12 05:15:29;;;;;;;2.78;1.75;;;23.00;99.90;;;;;;5121085;27;20437;-73
2023/07/12 05:17:55;;;;;;;3.08;1.83;;;23.10;99.90;;;;;;5103008;27;21025;-73
2023/07/12 05:20:21;;;;;;;4.20;2.00;;;23.20;99.90;;;;;;5121199;27;20418;-74
2023/07/12 05:22:47;;;;;;;2.75;1.70;;;23.30;99.90;;;;;;5115585;27;20402;-74
2023/07/12 05:25:14;;;;;;;4.47;1.90;;;23.30;99.90;;;;;;5087097;27;20406;-74
2023/07/12 05:27:41;;;;;;;2.63;1.88;;;23.40;99.90;;;;;;5071300;27;20408;-73
2023/07/12 05:30:08;;;;;;;5.38;1.80;;;23.50;99.90;;;;;;5118388;27;20394;-74
2023/07/12 05:32:35;;;;;;;5.53;2.08;;;23.50;99.90;;;;;;5117286;27;20424;-73
2023/07/12 05:35:01;;;;;;;2.55;1.70;;;23.60;99.90;;;;;;5118601;27;20425;-74
2023/07/12 05:37:27;;;;;;;4.53;2.10;;;23.60;99.90;;;;;;5118101;27;20434;-73
2023/07/12 05:39:54;;;;;;;3.20;1.95;;;23.70;99.90;;;;;;5101200;27;20550;-74
2023/07/12 05:42:21;;;;;;;5.05;1.95;;;23.80;99.90;;;;;;5116955;27;20409;-73
2023/07/12 05:44:47;;;;;;;3.58;1.98;;;23.80;99.90;;;;;;5117261;27;20429;-74
2023/07/12 05:47:13;;;;;;;3.70;2.10;;;24.00;99.90;;;;;;5119218;27;20402;-73
2023/07/12 05:49:40;;;;;;;3.23;2.00;;;24.10;99.90;;;;;;5116084;27;20412;-74
2023/07/12 05:52:06;;;;;;;3.10;1.90;;;24.20;99.90;;;;;;5101021;27;21277;-73
2023/07/12 05:54:33;;;;;;;3.08;1.88;;;24.30;99.90;;;;;;5117054;27;20912;-74
2023/07/12 05:56:59;;;;;;;4.68;2.00;;;24.30;99.90;;;;;;5097499;27;20491;-73
2023/07/12 05:59:25;;;;;;;3.08;1.83;;;24.40;99.90;;;;;;5086271;27;20838;-73
2023/07/12 06:01:51;;;;;;;4.37;1.80;;;24.50;99.90;;;;;;5102421;27;20768;-74
2023/07/12 06:04:18;;;;;;;4.93;2.00;;;24.50;99.90;;;;;;5085310;27;20413;-74
2023/07/12 06:06:45;;;;;;;4.88;1.75;;;24.60;99.30;;;;;;5085210;27;20398;-73
2023/07/12 06:09:12;;;;;;;5.13;2.00;;;24.70;98.70;;;;;;5086583;27;20395;-74
2023/07/12 06:11:39;;;;;;;2.95;2.00;;;24.70;98.90;;;;;;5116404;27;20424;-74
2023/07/12 06:14:05;;;;;;;3.45;2.03;;;24.80;99.10;;;;;;5119818;27;21646;-73
2023/07/12 06:16:35;;;;;;;5.18;2.00;;;24.90;98.00;;;;;;5117122;27;20414;-74
2023/07/12 06:19:03;;;;;;;4.50;2.27;;;25.00;97.80;;;;;;5079940;27;20410;-74
2023/07/12 06:21:29;;;;;;;4.10;1.83;;;25.10;98.40;;;;;;5110290;27;20780;-74
2023/07/12 06:23:58;;;;;;;4.90;2.10;;;25.10;98.60;;;;;;5101239;27;20437;-74
2023/07/12 06:26:24;;;;;;;3.42;1.90;;;25.20;98.90;;;;;;5081278;27;20414;-74
2023/07/12 06:28:50;;;;;;;6.60;2.28;;;25.40;98.60;;;;;;5117695;27;20418;-74
2023/07/12 06:31:17;;;;;;;3.90;2.00;;;25.50;98.50;;;;;;5100440;27;20493;-74
2023/07/12 06:33:43;;;;;;;7.00;2.10;;;25.60;98.60;;;;;;5081784;27;20410;-73
2023/07/12 06:36:09;;;;;;;4.30;2.15;;;25.90;98.70;;;;;;5118364;27;20447;-74
2023/07/12 06:38:36;;;;;;;4.05;2.05;;;26.00;98.40;;;;;;5116672;27;20499;-73
2023/07/12 06:41:02;;;;;;;3.15;2.00;;;26.20;98.30;;;;;;5118210;27;20450;-74
2023/07/12 06:43:29;;;;;;;4.50;1.90;;;26.40;98.30;;;;;;5118392;27;20761;-74
2023/07/12 06:45:55;;;;;;;5.15;2.20;;;26.40;97.40;;;;;;5116821;27;20845;-73
2023/07/12 06:48:23;;;;;;;4.38;2.00;;;26.50;97.10;;;;;;5100466;27;20849;-73
2023/07/12 06:50:49;;;;;;;4.53;2.00;;;26.60;98.00;;;;;;5100934;27;21203;-73
2023/07/12 06:53:15;;;;;;;3.40;1.90;;;26.70;98.30;;;;;;5103267;27;20904;-72
2023/07/12 06:55:44;;;;;;;4.65;2.25;;;26.90;98.90;;;;;;5095733;27;20414;-73
2023/07/12 06:58:12;;;;;;;5.03;2.00;;;26.90;98.70;;;;;;5102741;27;20402;-73
2023/07/12 07:00:43;;;;;;;3.65;2.10;;;26.90;96.50;;;;;;5098005;27;20403;-73
2023/07/12 07:03:12;;;;;;;3.22;1.80;;;27.00;97.30;;;;;;5113010;27;20403;-73
2023/07/12 07:05:42;;;;;;;5.65;1.80;;;27.00;97.60;;;;;;5096104;27;20420;-73
2023/07/12 07:08:10;;;;;;;2.90;2.00;;;27.20;97.00;;;;;;5094027;27;20807;-73
2023/07/12 07:10:37;;;;;;;4.10;2.07;;;27.30;96.40;;;;;;5094492;27;20467;-73
2023/07/12 07:13:04;;;;;;;4.38;2.08;;;27.50;97.40;;;;;;5115115;27;20971;-73
2023/07/12 07:15:30;;;;;;;4.53;2.00;;;27.60;97.30;;;;;;5098333;27;20417;-73
2023/07/12 07:17:57;;;;;;;6.45;2.13;;;27.70;97.40;;;;;;5117462;27;20409;-73
2023/07/12 07:20:24;;;;;;;2.67;1.92;;;27.80;97.70;;;;;;5102125;27;20443;-71
2023/07/12 07:22:50;;;;;;;2.80;1.80;;;27.90;98.00;;;;;;5112738;27;20552;-73
2023/07/12 07:25:17;;;;;;;3.30;1.85;;;27.90;98.30;;;;;;5114782;27;20404;-73
2023/07/12 07:27:43;;;;;;;5.38;2.03;;;27.90;98.30;;;;;;5098194;27;20460;-73
2023/07/12 07:30:11;;;;;;;7.82;2.10;;;28.00;98.70;;;;;;5096168;27;20408;-73
2023/07/12 07:32:37;;;;;;;3.08;1.80;;;28.00;98.70;;;;;;5117859;27;20406;-73
2023/07/12 07:35:04;;;;;;;3.40;1.90;;;28.10;99.40;;;;;;5115162;27;20415;-73
2023/07/12 07:37:32;;;;;;;3.73;2.07;;;28.10;99.40;;;;;;5118884;27;20926;-73
2023/07/12 07:40:02;;;;;;;3.75;1.95;;;28.20;99.20;;;;;;5118818;27;20402;-73
2023/07/12 07:42:29;;;;;;;5.22;2.05;;;28.30;98.80;;;;;;5096512;27;20411;-73
2023/07/12 07:44:55;;;;;;;3.20;2.00;;;28.40;98.90;;;;;;5113159;27;20403;-73
2023/07/12 07:47:21;;;;;;;3.65;2.10;;;28.40;98.30;;;;;;5101753;27;20409;-73
2023/07/12 07:49:48;;;;;;;3.88;1.92;;;28.50;98.40;;;;;;5103011;27;20519;-73
2023/07/12 07:52:14;;;;;;;5.07;1.85;;;28.70;98.30;;;;;;5113686;27;20406;-73
2023/07/12 07:54:41;;;;;;;5.70;1.98;;;28.80;98.00;;;;;;5107435;27;20424;-73
2023/07/12 07:57:08;;;;;;;3.33;1.90;;;29.00;98.20;;;;;;5081185;27;20463;-73
2023/07/12 07:59:34;;;;;;;7.57;1.98;;;29.10;97.80;;;;;;5089372;27;20395;-73
2023/07/12 08:02:02;;;;;;;3.57;1.90;;;29.20;98.00;;;;;;5089179;27;20461;-73
2023/07/12 08:04:30;;;;;;;4.10;2.00;;;29.30;99.10;;;;;;5071675;27;21206;-73
2023/07/12 08:06:56;;;;;;;5.78;1.95;;;29.40;99.80;;;;;;5103916;27;20415;-73
2023/07/12 08:09:23;;;;;;;3.50;2.10;;;29.50;99.90;;;;;;5087671;27;20410;-73
2023/07/12 08:11:50;;;;;;;5.80;2.05;;;29.60;99.90;;;;;;5108107;27;20410;-73
2023/07/12 08:14:18;;;;;;;5.22;1.90;;;29.70;99.90;;;;;;5094267;27;20569;-72
2023/07/12 08:16:44;;;;;;;5.13;2.10;;;29.80;99.90;;;;;;5108036;27;20465;-72
2023/07/12 08:19:11;;;;;;;3.80;1.83;;;29.90;99.90;;;;;;5059523;27;20406;-72
2023/07/12 08:21:37;;;;;;;3.30;1.88;;;29.90;99.90;;;;;;5100789;27;20413;-72
2023/07/12 08:24:04;;;;;;;4.05;2.00;;;30.00;99.90;;;;;;5102570;27;20431;-72
2023/07/12 08:26:30;;;;;;;5.30;2.30;;;30.10;99.90;;;;;;5079866;28;20920;-72
2023/07/12 08:28:56;;;;;;;5.80;1.90;;;30.20;99.90;;;;;;5087894;28;20828;-72
2023/07/12 08:31:23;;;;;;;4.20;2.00;;;30.20;99.90;;;;;;5106538;28;20425;-72
2023/07/12 08:33:49;;;;;;;3.90;2.00;;;30.20;99.90;;;;;;5080869;28;20410;-73
2023/07/12 08:36:16;;;;;;;5.63;1.98;;;30.40;99.90;;;;;;5111106;28;21347;-72
2023/07/12 08:38:45;;;;;;;4.57;1.90;;;30.60;99.90;;;;;;5102005;28;20419;-72
2023/07/12 08:41:18;;;;;;;7.00;2.15;;;30.60;99.90;;;;;;5071633;28;20398;-73
2023/07/12 08:43:44;;;;;;;4.53;2.10;;;30.60;99.90;;;;;;5102629;28;20415;-72
2023/07/12 08:46:18;;;;;;;7.05;2.13;;;30.60;99.90;;;;;;5077919;28;23189;-73
2023/07/12 08:48:45;;;;;;;7.17;2.40;;;30.80;99.90;;;;;;5093210;28;20892;-72
2023/07/12 08:51:22;;;;;;;4.15;2.20;;;30.80;99.90;;;;;;5087468;28;20446;-73
2023/07/12 08:53:49;;;;;;;3.92;2.20;;;30.90;99.90;;;;;;5102830;28;20985;-73
2023/07/12 08:56:18;;;;;;;4.43;1.73;;;30.90;99.90;;;;;;5106433;28;20448;-72
2023/07/12 08:58:50;;;;;;;3.75;1.90;;;31.00;99.90;;;;;;5102424;27;20410;-73
2023/07/12 09:01:47;;;;;;;3.40;1.90;;;31.10;98.80;;;;;;5082833;27;20395;-73
2023/07/12 09:04:28;;;;;;;5.72;2.08;;;31.20;99.40;;;;;;5107671;28;20405;-73
2023/07/12 09:07:01;;;;;;;6.43;1.95;;;31.30;99.90;;;;;;5098173;28;20425;-73
2023/07/12 09:09:32;;;;;;;4.82;1.98;;;31.30;99.90;;;;;;5103429;28;20408;-73
2023/07/12 09:12:01;;;;;;;4.22;2.00;;;31.30;99.90;;;;;;5071116;28;20394;-73
2023/07/12 09:14:27;;;;;;;4.80;2.10;;;31.30;99.90;;;;;;5099867;28;20459;-73
2023/07/12 09:16:59;;;;;;;4.55;1.90;;;31.20;99.90;;;;;;5083294;28;20471;-72
2023/07/12 09:19:37;;;;;;;6.32;2.08;;;31.10;99.90;;;;;;5084082;28;20394;-73
2023/07/12 09:22:15;;;;;;;4.75;1.95;;;31.20;99.90;;;;;;5102667;28;20399;-73
2023/07/12 09:24:46;;;;;;;6.97;1.90;;;31.10;99.90;;;;;;5091679;28;20437;-73
2023/07/12 09:27:24;;;;;;;4.70;1.93;;;31.10;99.90;;;;;;5085543;28;20490;-73
2023/07/12 09:30:04;;;;;;;4.60;2.08;;;31.30;99.90;;;;;;5099254;27;20501;-73
2023/07/12 09:32:36;;;;;;;5.47;2.13;;;31.40;99.90;;;;;;5115321;27;20406;-73
2023/07/12 09:35:27;;;;;;;4.85;2.15;;;31.60;99.90;;;;;;5116154;27;20414;-73
2023/07/12 09:38:04;;;;;;;5.40;2.08;;;31.60;99.90;;;;;;5081569;27;20525;-73
2023/07/12 09:40:46;;;;;;;8.02;2.17;;;31.60;99.90;;;;;;5113913;27;20513;-73
2023/07/12 09:43:23;;;;;;;3.72;1.95;;;31.60;99.90;;;;;;5098740;27;20489;-73
2023/07/12 09:46:20;;;;;;;5.20;2.15;;;31.80;99.90;;;;;;5117432;27;20422;-73
2023/07/12 09:48:55;;;;;;;5.13;1.87;;;31.80;99.90;;;;;;5097293;27;20404;-73
2023/07/12 09:51:27;;;;;;;7.55;2.00;;;32.00;99.90;;;;;;5095949;27;20561;-73
2023/07/12 09:54:00;;;;;;;6.00;2.17;;;32.20;99.90;;;;;;5082733;27;20406;-73
2023/07/12 09:56:47;;;;;;;4.13;1.90;;;32.30;99.90;;;;;;5091211;27;20417;-73
2023/07/12 09:59:40;;;;;;;4.15;1.85;;;32.70;99.90;;;;;;5073989;27;20405;-73
2023/07/12 10:02:35;;;;;;;5.88;1.95;;;32.80;99.90;;;;;;5070089;27;20513;-73
2023/07/12 10:05:21;;;;;;;3.97;2.00;;;33.10;99.90;;;;;;5105083;27;20394;-73
2023/07/12 10:08:03;;;;;;;5.50;1.90;;;33.10;99.90;;;;;;5099673;27;20410;-73
2023/07/12 10:10:51;;;;;;;4.32;1.90;;;33.10;99.90;;;;;;5061154;27;20394;-73
2023/07/12 10:13:40;;;;;;;5.25;2.03;;;33.10;99.90;;;;;;5088444;27;20472;-73
2023/07/12 10:16:21;;;;;;;5.27;2.30;;;33.20;99.90;;;;;;5080512;27;20809;-73
2023/07/12 10:18:49;;;;;;;5.18;2.10;;;33.20;99.90;;;;;;5117072;27;20826;-73
2023/07/12 10:21:25;;;;;;;6.43;2.20;;;33.10;99.90;;;;;;5115540;27;20752;-73
2023/07/12 10:24:06;;;;;;;5.47;2.10;;;33.20;99.90;;;;;;5097663;27;20406;-73
2023/07/12 10:26:36;;;;;;;5.82;2.17;;;33.00;99.90;;;;;;5080551;27;20967;-73
2023/07/12 10:29:19;;;;;;;6.28;2.22;;;33.00;99.90;;;;;;5113566;27;20720;-72
2023/07/12 10:31:57;;;;;;;5.55;2.20;;;32.60;99.90;;;;;;5095739;27;20535;-73
2023/07/12 10:34:46;;;;;;;6.03;2.17;;;32.40;99.90;;;;;;5082144;27;20405;-73
2023/07/12 10:37:15;;;;;;;5.50;2.10;;;32.20;99.90;;;;;;5105806;27;20668;-73
2023/07/12 10:39:41;;;;;;;9.05;2.30;;;32.00;99.90;;;;;;5075698;27;20443;-73
2023/07/12 10:42:49;;;;;;;6.87;2.47;;;31.90;99.90;;;;;;5085719;27;20401;-73
2023/07/12 10:45:29;;;;;;;4.72;2.30;;;31.70;99.90;;;;;;5099684;27;20438;-73
2023/07/12 10:47:58;;;;;;;5.93;1.95;;;31.70;99.90;;;;;;5118450;27;20953;-72
2023/07/12 10:50:49;;;;;;;5.50;2.28;;;31.50;99.90;;;;;;5118159;27;20426;-72
2023/07/12 10:53:22;;;;;;;5.72;2.28;;;31.50;99.90;;;;;;5100624;27;20463;-72
2023/07/12 10:56:17;;;;;;;6.97;1.98;;;31.50;99.90;;;;;;5106816;27;20945;-74
2023/07/12 10:59:05;;;;;;;8.43;2.08;;;31.40;99.90;;;;;;5090550;27;20439;-73
2023/07/12 11:01:43;;;;;;;4.95;2.30;;;31.40;99.90;;;;;;5109081;27;20441;-74
2023/07/12 11:04:17;;;;;;;6.90;2.25;;;31.30;99.90;;;;;;5106522;27;20412;-73
2023/07/12 11:07:29;;;;;;;4.93;2.10;;;31.20;99.90;;;;;;5108265;27;20416;-73
2023/07/12 11:10:04;;;;;;;5.45;2.08;;;31.20;99.90;;;;;;5099042;27;20408;-74
2023/07/12 11:12:53;;;;;;;5.40;2.00;;;31.30;99.90;;;;;;5113822;27;20478;-73
2023/07/12 11:15:27;;;;;;;8.45;2.10;;;31.30;99.90;;;;;;5108410;27;20406;-73
2023/07/12 11:18:09;;;;;;;6.43;2.20;;;31.40;99.90;;;;;;5104958;27;20416;-73
2023/07/12 11:21:24;;;;;;;21.33;3.05;;;31.40;99.90;;;;;;5083516;27;20424;-73
2023/07/12 11:23:51;;;;;;;9.75;1.95;;;31.40;99.90;;;;;;5084405;28;20408;-73
2023/07/12 11:26:35;;;;;;;7.70;2.03;;;31.40;99.90;;;;;;5112453;27;21714;-73
2023/07/12 11:29:44;;;;;;;9.10;2.10;;;31.30;99.90;;;;;;5093939;27;20403;-73
2023/07/12 11:32:34;;;;;;;6.53;2.17;;;31.40;99.90;;;;;;5082827;27;20412;-73
2023/07/12 11:35:30;;;;;;;5.50;1.90;;;31.40;99.90;;;;;;5097605;27;20433;-73
2023/07/12 11:37:56;;;;;;;6.50;2.10;;;31.50;99.90;;;;;;5114701;27;20420;-73
2023/07/12 11:40:31;;;;;;;6.22;2.10;;;31.50;99.90;;;;;;5108200;27;21486;-73
2023/07/12 11:43:35;;;;;;;5.35;1.70;;;31.50;99.90;;;;;;5092808;27;20407;-73
2023/07/12 11:46:23;;;;;;;4.53;1.97;;;31.50;99.90;;;;;;5109691;27;20462;-73
2023/07/12 11:48:57;;;;;;;7.13;1.80;;;31.40;99.90;;;;;;5104336;27;20450;-73
2023/07/12 11:51:38;;;;;;;4.87;1.80;;;31.40;99.90;;;;;;5090045;27;20573;-73
2023/07/12 11:54:40;;;;;;;9.57;2.00;;;31.30;99.90;;;;;;5103278;27;20823;-73
2023/07/12 11:57:13;;;;;;;26.98;3.00;;;31.30;99.90;;;;;;5106377;27;20479;-73
2023/07/12 11:59:44;;;;;;;11.65;2.40;;;31.30;99.90;;;;;;5096310;27;20464;-73
2023/07/12 12:02:21;;;;;;;4.57;2.00;;;31.20;99.90;;;;;;5108507;27;20567;-73
2023/07/12 12:04:59;;;;;;;4.77;2.00;;;31.20;99.90;;;;;;5085878;27;20805;-73
2023/07/12 12:07:39;;;;;;;5.68;2.00;;;31.30;99.90;;;;;;5111903;27;21165;-73
2023/07/12 12:10:13;;;;;;;5.07;2.10;;;31.20;99.90;;;;;;5114883;27;20411;-73
2023/07/12 12:12:41;;;;;;;7.18;2.10;;;31.30;99.90;;;;;;5102536;27;20430;-73
2023/07/12 12:15:30;;;;;;;5.63;1.87;;;31.30;99.90;;;;;;5113793;27;20453;-73
2023/07/12 12:18:05;;;;;;;8.68;2.10;;;31.30;99.90;;;;;;5107659;27;20926;-73
2023/07/12 12:20:32;;;;;;;4.38;1.92;;;31.30;99.90;;;;;;5094272;28;20422;-73
2023/07/12 12:23:15;;;;;;;5.10;1.80;;;31.30;99.90;;;;;;5111125;27;20829;-73
2023/07/12 12:25:52;;;;;;;6.65;1.98;;;31.10;99.90;;;;;;5098547;28;20495;-73
2023/07/12 12:28:31;;;;;;;8.50;2.00;;;31.10;99.90;;;;;;5111734;27;20449;-73
2023/07/12 12:30:59;;;;;;;3.65;1.88;;;31.00;99.90;;;;;;5111148;27;20408;-73
2023/07/12 12:33:28;;;;;;;5.80;2.00;;;31.00;99.90;;;;;;5093628;28;20470;-73
2023/07/12 12:36:04;;;;;;;7.17;2.03;;;31.00;99.90;;;;;;5095641;28;20417;-73
2023/07/12 12:38:36;;;;;;;4.05;1.70;;;30.90;99.90;;;;;;5098942;28;20881;-73
2023/07/12 12:41:15;;;;;;;3.23;1.80;;;30.90;99.90;;;;;;5095189;27;20416;-73
2023/07/12 12:44:05;;;;;;;6.82;2.00;;;30.90;99.90;;;;;;5112673;27;20471;-73
2023/07/12 12:46:32;;;;;;;4.10;1.90;;;31.00;99.90;;;;;;5116592;27;20410;-74
2023/07/12 12:49:44;;;;;;;6.10;1.80;;;31.00;99.90;;;;;;5154952;22;20379;-95
2023/07/12 12:58:03;;;;;;;4.68;1.95;;;31.30;99.20;;;;;;5048442;28;20458;-96
2023/07/12 13:01:00;;;;;;;5.28;1.70;;;31.40;98.90;;;;;;4954100;28;20429;-94
2023/07/12 13:05:40;;;;;;;7.30;2.03;;;31.40;97.10;;;;;;4899804;29;20430;-94
2023/07/12 13:09:24;;;;;;;4.60;1.67;;;31.50;96.00;;;;;;4886084;29;20475;-91
2023/07/12 13:19:54;;;;;;;4.65;1.80;;;31.60;98.10;;;;;;4832492;29;21238;-93
2023/07/12 13:22:39;;;;;;;4.47;1.70;;;31.60;98.90;;;;;;4828603;29;20458;-91
2023/07/12 13:25:09;;;;;;;5.47;1.85;;;31.60;98.40;;;;;;4932882;28;20413;-88